Time;durP1;ratioP1;P1;durP2;ratioP2;P2;SDS_P1;SDS_P2;PMS_P1;PMS_P2;Temp;Humidity;BMP_temperature;BMP_pressure;BME280_temperature;BME280_humidity;BME280_pressure;Samples;Min_cycle;Max_cycle;Signal;HPM_P1;HPM_P2
2022/12/10 00:00:22;;;;;;;;;64.00;50.67;;;;;;;;5039045;27;8822;-83
2022/12/10 00:02:49;;;;;;;;;71.00;56.33;;;;;;;;5021912;27;11537;-83
2022/12/10 00:05:19;;;;;;;;;61.33;51.33;;;;;;;;5052522;28;11585;-83
2022/12/10 00:07:47;;;;;;;;;60.00;46.00;;;;;;;;5027916;28;11525;-83
2022/12/10 00:10:14;;;;;;;;;66.33;51.67;;;;;;;;5019770;28;11632;-83
2022/12/10 00:12:42;;;;;;;;;75.00;54.00;;;;;;;;5034936;28;8846;-83
2022/12/10 00:15:11;;;;;;;;;64.67;52.00;;;;;;;;5030228;27;8867;-82
2022/12/10 00:17:38;;;;;;;;;69.33;52.67;;;;;;;;5043287;27;8849;-83
2022/12/10 00:20:07;;;;;;;;;67.67;54.33;;;;;;;;5049922;27;8823;-83
2022/12/10 00:22:37;;;;;;;;;74.00;55.33;;;;;;;;5044994;27;8852;-82
2022/12/10 00:25:05;;;;;;;;;69.67;53.00;;;;;;;;5040768;27;8828;-83
2022/12/10 00:27:33;;;;;;;;;61.33;50.33;;;;;;;;5033287;27;8836;-83
2022/12/10 00:30:01;;;;;;;;;60.67;47.00;;;;;;;;5054745;27;8853;-84
2022/12/10 00:32:29;;;;;;;;;64.67;52.67;;;;;;;;5052043;27;8830;-84
2022/12/10 00:34:56;;;;;;;;;69.00;54.33;;;;;;;;5037288;27;8866;-83
2022/12/10 00:37:24;;;;;;;;;68.00;56.00;;;;;;;;5030252;28;8812;-83
2022/12/10 00:39:53;;;;;;;;;62.33;49.00;;;;;;;;5040158;27;8818;-83
2022/12/10 00:42:20;;;;;;;;;57.00;47.00;;;;;;;;5051867;27;8853;-83
2022/12/10 00:44:48;;;;;;;;;69.67;55.00;;;;;;;;5033108;27;8837;-85
2022/12/10 00:47:15;;;;;;;;;74.67;56.33;;;;;;;;5042871;27;8925;-84
2022/12/10 00:49:43;;;;;;;;;64.33;52.33;;;;;;;;5038943;27;8955;-83
2022/12/10 00:52:10;;;;;;;;;64.33;52.67;;;;;;;;5042015;27;8877;-83
2022/12/10 00:54:38;;;;;;;;;63.00;52.33;;;;;;;;5023209;28;8862;-82
2022/12/10 00:57:07;;;;;;;;;69.33;53.67;;;;;;;;5045793;27;8837;-82
2022/12/10 00:59:35;;;;;;;;;67.67;53.00;;;;;;;;5032601;27;8888;-82
2022/12/10 01:02:02;;;;;;;;;68.33;53.67;;;;;;;;5063264;27;8862;-82
2022/12/10 01:04:30;;;;;;;;;61.67;50.00;;;;;;;;5059229;27;8845;-82
2022/12/10 01:06:59;;;;;;;;;68.33;52.00;;;;;;;;5075703;27;8837;-81
2022/12/10 01:09:28;;;;;;;;;59.67;50.67;;;;;;;;5038604;27;8891;-81
2022/12/10 01:11:57;;;;;;;;;64.67;52.00;;;;;;;;5036050;28;8834;-81
2022/12/10 01:14:28;;;;;;;;;59.67;47.67;;;;;;;;5072627;27;8883;-82
2022/12/10 01:16:59;;;;;;;;;61.33;48.33;;;;;;;;5048895;27;8909;-81
2022/12/10 01:19:26;;;;;;;;;55.67;45.67;;;;;;;;5035246;27;8830;-82
2022/12/10 01:21:55;;;;;;;;;52.00;44.33;;;;;;;;5045993;27;8832;-81
2022/12/10 01:24:22;;;;;;;;;68.00;52.67;;;;;;;;5059533;27;8850;-82
2022/12/10 01:26:50;;;;;;;;;65.67;51.33;;;;;;;;5037314;27;8868;-82
2022/12/10 01:29:18;;;;;;;;;71.67;51.67;;;;;;;;5037570;27;8850;-81
2022/12/10 01:31:48;;;;;;;;;62.33;53.00;;;;;;;;5031110;27;8841;-81
2022/12/10 01:34:15;;;;;;;;;52.67;44.33;;;;;;;;5046174;27;8871;-83
2022/12/10 01:36:45;;;;;;;;;60.33;43.67;;;;;;;;5050679;27;8836;-83
2022/12/10 01:39:15;;;;;;;;;67.67;53.33;;;;;;;;5041035;27;8886;-82
2022/12/10 01:41:46;;;;;;;;;63.67;52.00;;;;;;;;5056435;27;8844;-82
2022/12/10 01:44:51;;;;;;;;;61.00;51.67;;;;;;;;5070054;27;8844;-82
2022/12/10 01:47:20;;;;;;;;;55.00;45.00;;;;;;;;5056276;27;8864;-83
2022/12/10 01:49:48;;;;;;;;;59.00;48.67;;;;;;;;5035192;27;8997;-83
2022/12/10 01:52:15;;;;;;;;;64.00;48.00;;;;;;;;5087319;27;8830;-83
2022/12/10 01:54:44;;;;;;;;;48.67;39.67;;;;;;;;5042021;27;9680;-81
2022/12/10 01:57:15;;;;;;;;;64.67;51.00;;;;;;;;5051934;27;8858;-81
2022/12/10 01:59:44;;;;;;;;;46.67;39.00;;;;;;;;5030946;27;8845;-82
2022/12/10 02:02:17;;;;;;;;;45.33;41.00;;;;;;;;5028297;27;8862;-82
2022/12/10 02:04:52;;;;;;;;;48.67;42.67;;;;;;;;5043518;27;11512;-82
2022/12/10 02:07:25;;;;;;;;;46.67;41.33;;;;;;;;5081205;27;11496;-83
2022/12/10 02:10:00;;;;;;;;;39.33;39.33;;;;;;;;5039656;27;11515;-83
2022/12/10 02:12:32;;;;;;;;;41.67;33.67;;;;;;;;5056762;27;11625;-83
2022/12/10 02:15:04;;;;;;;;;50.33;42.67;;;;;;;;5052614;27;11541;-82
2022/12/10 02:17:37;;;;;;;;;48.00;39.67;;;;;;;;5038990;27;11522;-82
2022/12/10 02:20:11;;;;;;;;;45.25;40.00;;;;;;;;5036411;27;11613;-83
2022/12/10 02:22:41;;;;;;;;;51.00;41.00;;;;;;;;5026000;27;12277;-82
2022/12/10 02:25:12;;;;;;;;;59.67;47.67;;;;;;;;5043889;27;11517;-82
2022/12/10 02:27:48;;;;;;;;;53.67;43.33;;;;;;;;5018932;27;8855;-82
2022/12/10 02:30:17;;;;;;;;;55.67;48.33;;;;;;;;5032661;27;11622;-83
2022/12/10 02:32:47;;;;;;;;;46.33;42.33;;;;;;;;5022611;27;11635;-82
2022/12/10 02:35:20;;;;;;;;;57.00;47.67;;;;;;;;5044433;27;11532;-82
2022/12/10 02:37:51;;;;;;;;;61.67;46.33;;;;;;;;5028350;28;8840;-82
2022/12/10 02:40:21;;;;;;;;;44.00;38.33;;;;;;;;5043859;27;11552;-82
2022/12/10 02:42:51;;;;;;;;;53.33;42.67;;;;;;;;5032792;27;11596;-83
2022/12/10 02:45:23;;;;;;;;;58.00;46.67;;;;;;;;5014721;27;8852;-82
2022/12/10 02:47:51;;;;;;;;;60.33;48.67;;;;;;;;5052619;27;8827;-83
2022/12/10 02:50:20;;;;;;;;;68.00;57.67;;;;;;;;5031344;27;8881;-83
2022/12/10 02:52:48;;;;;;;;;64.67;52.67;;;;;;;;5035221;27;8834;-82
2022/12/10 02:55:16;;;;;;;;;64.67;50.00;;;;;;;;5051976;27;8849;-83
2022/12/10 02:57:58;;;;;;;;;55.00;45.67;;;;;;;;5046354;27;8860;-82
2022/12/10 03:00:27;;;;;;;;;53.67;42.33;;;;;;;;5029699;28;11527;-82
2022/12/10 03:03:19;;;;;;;;;66.00;53.67;;;;;;;;5042839;27;11536;-82
2022/12/10 03:05:50;;;;;;;;;55.00;43.00;;;;;;;;5032951;27;8864;-82
2022/12/10 03:08:21;;;;;;;;;39.33;38.33;;;;;;;;5043558;27;11664;-85
2022/12/10 03:10:54;;;;;;;;;39.67;35.33;;;;;;;;5041363;27;11512;-83
2022/12/10 03:13:24;;;;;;;;;49.33;43.33;;;;;;;;5044104;27;11503;-82
2022/12/10 03:15:55;;;;;;;;;57.33;43.00;;;;;;;;5062386;27;11496;-83
2022/12/10 03:18:26;;;;;;;;;45.67;39.00;;;;;;;;5027882;27;11541;-82
2022/12/10 03:20:57;;;;;;;;;57.67;46.33;;;;;;;;5023092;28;11559;-82
2022/12/10 03:23:25;;;;;;;;;53.33;45.33;;;;;;;;5031449;28;11531;-82
2022/12/10 03:25:53;;;;;;;;;62.00;48.67;;;;;;;;5008110;28;11538;-82
2022/12/10 03:28:22;;;;;;;;;58.67;44.00;;;;;;;;5048975;27;9849;-81
2022/12/10 03:30:53;;;;;;;;;43.25;39.00;;;;;;;;5023342;27;9816;-83
2022/12/10 03:33:21;;;;;;;;;41.25;38.25;;;;;;;;5064296;27;11540;-82
2022/12/10 03:35:49;;;;;;;;;47.75;40.50;;;;;;;;5042225;27;11562;-82
2022/12/10 03:38:17;;;;;;;;;42.75;35.75;;;;;;;;5043140;27;11681;-82
2022/12/10 03:40:45;;;;;;;;;38.50;36.75;;;;;;;;5066634;27;11548;-82
2022/12/10 03:43:14;;;;;;;;;44.67;39.67;;;;;;;;5043400;27;11530;-81
2022/12/10 03:45:41;;;;;;;;;38.75;36.00;;;;;;;;5066748;28;11572;-82
2022/12/10 03:48:10;;;;;;;;;49.67;42.00;;;;;;;;5038060;28;11523;-81
2022/12/10 03:50:38;;;;;;;;;36.25;31.50;;;;;;;;5053115;27;11633;-81
2022/12/10 03:53:05;;;;;;;;;42.33;38.00;;;;;;;;5061820;27;11462;-82
2022/12/10 03:55:33;;;;;;;;;41.25;38.00;;;;;;;;5030787;27;11574;-82
2022/12/10 03:58:01;;;;;;;;;50.25;42.25;;;;;;;;5022993;28;11533;-82
2022/12/10 04:00:28;;;;;;;;;52.75;41.25;;;;;;;;5053913;27;11532;-81
2022/12/10 04:02:56;;;;;;;;;36.50;35.75;;;;;;;;5024560;28;11585;-83
2022/12/10 04:05:25;;;;;;;;;54.75;44.50;;;;;;;;5037709;27;11574;-82
2022/12/10 04:07:52;;;;;;;;;44.75;37.75;;;;;;;;5048575;27;11581;-82
2022/12/10 04:10:19;;;;;;;;;43.50;39.25;;;;;;;;5053237;27;11664;-83
2022/12/10 04:16:26;;;;;;;;;54.67;41.33;;;;;;;;5047445;27;11567;-82
2022/12/10 04:18:19;;;;;;;;;38.00;36.33;;;;;;;;5056023;27;12350;-82
2022/12/10 04:29:04;;;;;;;;;34.75;33.25;;;;;;;;5061625;27;11639;-82
2022/12/10 04:31:32;;;;;;;;;56.00;46.00;;;;;;;;5045334;27;11551;-81
2022/12/10 04:33:59;;;;;;;;;59.00;48.33;;;;;;;;5045116;27;11547;-80
2022/12/10 04:36:38;;;;;;;;;77.33;58.67;;;;;;;;5049229;28;11663;-84
2022/12/10 04:39:06;;;;;;;;;61.33;44.00;;;;;;;;5042071;27;8924;-82
2022/12/10 04:41:36;;;;;;;;;58.33;47.67;;;;;;;;5062797;27;11497;-83
2022/12/10 04:44:04;;;;;;;;;58.67;47.00;;;;;;;;5017684;27;11646;-82
2022/12/10 04:46:31;;;;;;;;;56.00;43.33;;;;;;;;5041271;27;11579;-83
2022/12/10 04:48:59;;;;;;;;;61.67;47.00;;;;;;;;5014630;28;11521;-81
2022/12/10 04:51:26;;;;;;;;;60.33;45.67;;;;;;;;5047683;28;11554;-81
2022/12/10 04:53:55;;;;;;;;;46.67;41.67;;;;;;;;5036519;27;11542;-82
2022/12/10 04:56:22;;;;;;;;;47.33;42.67;;;;;;;;5064258;27;11526;-81
2022/12/10 04:58:50;;;;;;;;;37.50;34.50;;;;;;;;5049266;27;11593;-83
2022/12/10 05:01:18;;;;;;;;;36.25;31.75;;;;;;;;5006632;28;11665;-82
2022/12/10 05:03:45;;;;;;;;;43.33;42.33;;;;;;;;5046855;27;12335;-82
2022/12/10 05:06:15;;;;;;;;;45.75;39.00;;;;;;;;5031929;27;11594;-82
2022/12/10 05:08:43;;;;;;;;;56.33;45.33;;;;;;;;5037946;27;12334;-81
2022/12/10 05:11:15;;;;;;;;;51.33;42.67;;;;;;;;5035909;28;11673;-82
2022/12/10 05:13:42;;;;;;;;;46.33;43.00;;;;;;;;5041448;27;8850;-82
2022/12/10 05:16:12;;;;;;;;;54.67;46.00;;;;;;;;5063137;27;11596;-80
2022/12/10 05:18:40;;;;;;;;;50.00;42.00;;;;;;;;5083473;27;8830;-80
2022/12/10 05:21:11;;;;;;;;;52.67;41.33;;;;;;;;5033996;27;11570;-81
2022/12/10 05:23:38;;;;;;;;;43.33;40.33;;;;;;;;5064578;27;12357;-81
2022/12/10 05:26:09;;;;;;;;;49.00;42.00;;;;;;;;5033189;27;11480;-80
2022/12/10 05:28:40;;;;;;;;;45.33;38.00;;;;;;;;5057493;27;8965;-80
2022/12/10 05:31:13;;;;;;;;;42.67;34.00;;;;;;;;5037088;27;8840;-80
2022/12/10 06:10:02;;;;;;;;;43.67;35.67;;;;;;;;5068727;22;12314;-79
2022/12/10 06:12:29;;;;;;;;;40.00;30.00;;;;;;;;5032538;28;8865;-83
2022/12/10 06:14:57;;;;;;;;;28.33;23.00;;;;;;;;5028042;28;8914;-79
2022/12/10 06:17:25;;;;;;;;;26.33;25.67;;;;;;;;5030353;28;11575;-81
2022/12/10 06:19:52;;;;;;;;;27.00;24.00;;;;;;;;5024418;28;11592;-81
2022/12/10 06:22:22;;;;;;;;;28.00;24.67;;;;;;;;5028308;28;11623;-83
2022/12/10 06:24:49;;;;;;;;;29.67;29.67;;;;;;;;5024118;28;11601;-83
2022/12/10 06:27:18;;;;;;;;;31.33;27.33;;;;;;;;5032493;28;11627;-82
2022/12/10 06:29:46;;;;;;;;;37.33;30.00;;;;;;;;5033727;28;11615;-83
2022/12/10 06:32:16;;;;;;;;;29.33;24.67;;;;;;;;5030207;28;11721;-83
2022/12/10 06:34:44;;;;;;;;;43.67;30.33;;;;;;;;5027129;28;11562;-83
2022/12/10 06:37:11;;;;;;;;;50.33;44.00;;;;;;;;5025364;28;11607;-83
2022/12/10 06:39:39;;;;;;;;;32.67;27.33;;;;;;;;5023811;28;8890;-83
2022/12/10 06:42:09;;;;;;;;;40.33;29.67;;;;;;;;5029927;28;11642;-83
2022/12/10 06:44:43;;;;;;;;;28.67;23.33;;;;;;;;5031860;28;11659;-83
2022/12/10 06:47:10;;;;;;;;;30.67;26.67;;;;;;;;5030401;28;12329;-82
2022/12/10 06:49:38;;;;;;;;;39.67;34.00;;;;;;;;5026683;28;11621;-83
2022/12/10 06:52:06;;;;;;;;;32.33;32.33;;;;;;;;5031398;28;11617;-83
2022/12/10 06:54:33;;;;;;;;;26.00;26.00;;;;;;;;5028959;28;11626;-83
2022/12/10 06:57:01;;;;;;;;;26.75;19.25;;;;;;;;5029178;28;11563;-81
2022/12/10 06:59:28;;;;;;;;;21.50;16.50;;;;;;;;5033414;28;11606;-83
2022/12/10 07:01:57;;;;;;;;;15.50;15.50;;;;;;;;5023683;28;11683;-84
2022/12/10 07:04:27;;;;;;;;;27.00;18.50;;;;;;;;5028802;28;11561;-84
2022/12/10 07:06:54;;;;;;;;;20.00;16.75;;;;;;;;5022815;28;11678;-83
2022/12/10 07:09:22;;;;;;;;;20.25;14.50;;;;;;;;5027398;28;11569;-84
2022/12/10 07:11:49;;;;;;;;;16.25;12.00;;;;;;;;5024691;28;11587;-84
2022/12/10 07:14:18;;;;;;;;;18.25;18.00;;;;;;;;5029123;28;11557;-83
2022/12/10 07:16:46;;;;;;;;;24.50;16.00;;;;;;;;5028582;28;11669;-83
2022/12/10 07:19:15;;;;;;;;;15.75;15.75;;;;;;;;5028986;28;11614;-83
2022/12/10 07:21:45;;;;;;;;;20.25;17.75;;;;;;;;5025125;28;11568;-83
2022/12/10 07:24:16;;;;;;;;;16.50;13.50;;;;;;;;5031703;28;11725;-83
2022/12/10 07:26:45;;;;;;;;;20.00;20.00;;;;;;;;5029046;28;11552;-84
2022/12/10 07:29:17;;;;;;;;;15.25;14.25;;;;;;;;5033168;28;12448;-83
2022/12/10 07:31:45;;;;;;;;;21.50;19.25;;;;;;;;5032404;28;11561;-84
2022/12/10 07:34:15;;;;;;;;;31.67;25.00;;;;;;;;5028700;28;11695;-83
2022/12/10 07:36:45;;;;;;;;;22.25;21.50;;;;;;;;5030898;28;11684;-84
2022/12/10 07:39:17;;;;;;;;;20.00;15.00;;;;;;;;5027504;28;11591;-84
2022/12/10 07:41:45;;;;;;;;;24.00;21.25;;;;;;;;5030853;28;11667;-83
2022/12/10 07:44:16;;;;;;;;;20.50;16.25;;;;;;;;5026822;28;11580;-83
2022/12/10 07:46:44;;;;;;;;;22.75;17.50;;;;;;;;5026614;28;11719;-83
2022/12/10 07:49:11;;;;;;;;;45.00;40.67;;;;;;;;5023042;28;11646;-84
2022/12/10 07:51:40;;;;;;;;;27.75;25.25;;;;;;;;5029504;28;11719;-83
2022/12/10 07:54:08;;;;;;;;;17.50;16.00;;;;;;;;5027251;28;11736;-84
2022/12/10 07:56:35;;;;;;;;;23.00;19.00;;;;;;;;5027810;28;11580;-83
2022/12/10 07:59:09;;;;;;;;;16.25;14.50;;;;;;;;5030792;28;11627;-84
2022/12/10 08:01:37;;;;;;;;;19.00;13.50;;;;;;;;5025442;28;11580;-83
2022/12/10 08:04:05;;;;;;;;;25.25;20.25;;;;;;;;5023476;28;11577;-84
2022/12/10 08:06:32;;;;;;;;;24.00;17.50;;;;;;;;5024295;28;11590;-84
2022/12/10 08:09:01;;;;;;;;;17.75;17.75;;;;;;;;5031273;28;11622;-84
2022/12/10 08:11:30;;;;;;;;;24.00;23.00;;;;;;;;5031957;28;11564;-83
2022/12/10 08:13:57;;;;;;;;;18.00;18.00;;;;;;;;5023870;28;11606;-83
2022/12/10 08:16:26;;;;;;;;;22.25;20.00;;;;;;;;5029003;28;11581;-83
2022/12/10 08:18:57;;;;;;;;;18.25;16.75;;;;;;;;5029084;28;11721;-83
2022/12/10 08:21:27;;;;;;;;;22.00;16.75;;;;;;;;5024593;28;11616;-83
2022/12/10 08:23:55;;;;;;;;;23.50;20.00;;;;;;;;5024940;28;11630;-83
2022/12/10 08:26:26;;;;;;;;;12.00;11.75;;;;;;;;5027335;28;11599;-83
2022/12/10 08:28:53;;;;;;;;;16.50;15.75;;;;;;;;5027612;28;11564;-83
2022/12/10 08:31:22;;;;;;;;;23.25;19.50;;;;;;;;5031610;28;11647;-82
2022/12/10 08:33:51;;;;;;;;;21.00;15.00;;;;;;;;5033387;28;11574;-83
2022/12/10 08:36:19;;;;;;;;;25.75;19.75;;;;;;;;5034719;28;11608;-83
2022/12/10 08:38:47;;;;;;;;;28.50;25.00;;;;;;;;5033952;28;11604;-83
2022/12/10 08:41:16;;;;;;;;;22.50;20.50;;;;;;;;5035195;28;11729;-83
2022/12/10 08:43:45;;;;;;;;;22.00;22.00;;;;;;;;5029514;28;12390;-83
2022/12/10 08:46:14;;;;;;;;;28.25;21.00;;;;;;;;5028597;28;11568;-83
2022/12/10 08:48:42;;;;;;;;;29.25;22.00;;;;;;;;5032523;28;11595;-83
2022/12/10 08:51:12;;;;;;;;;21.00;21.00;;;;;;;;5032668;28;11594;-81
2022/12/10 08:53:39;;;;;;;;;24.00;16.75;;;;;;;;5028482;28;11624;-83
2022/12/10 08:56:07;;;;;;;;;25.75;18.75;;;;;;;;5034037;28;11558;-82
2022/12/10 08:58:35;;;;;;;;;24.25;21.50;;;;;;;;5028479;28;11588;-83
2022/12/10 09:01:07;;;;;;;;;31.50;25.50;;;;;;;;5029841;28;11599;-81
2022/12/10 09:03:35;;;;;;;;;28.00;27.00;;;;;;;;5030750;28;11559;-82
2022/12/10 09:06:07;;;;;;;;;22.00;20.75;;;;;;;;5031394;28;11589;-83
2022/12/10 09:08:35;;;;;;;;;27.00;18.50;;;;;;;;5028246;28;11621;-82
2022/12/10 09:11:06;;;;;;;;;24.50;21.25;;;;;;;;5028705;28;11585;-82
2022/12/10 09:13:34;;;;;;;;;28.25;20.00;;;;;;;;5029496;28;12392;-82
2022/12/10 09:16:02;;;;;;;;;19.00;18.25;;;;;;;;5027508;28;11628;-82
2022/12/10 09:18:33;;;;;;;;;18.25;17.25;;;;;;;;5031690;28;11624;-82
2022/12/10 09:21:00;;;;;;;;;28.25;21.00;;;;;;;;5034633;28;11638;-82
2022/12/10 09:23:28;;;;;;;;;24.25;23.25;;;;;;;;5030379;28;11592;-81
2022/12/10 09:25:56;;;;;;;;;32.50;28.75;;;;;;;;5031927;28;11725;-82
2022/12/10 09:28:24;;;;;;;;;19.00;15.75;;;;;;;;5029811;28;11594;-81
2022/12/10 09:30:58;;;;;;;;;24.75;24.00;;;;;;;;5009696;28;11567;-83
2022/12/10 09:33:26;;;;;;;;;21.25;20.00;;;;;;;;5033247;28;11652;-83
2022/12/10 09:35:55;;;;;;;;;30.50;21.25;;;;;;;;5036425;28;11698;-83
2022/12/10 09:38:23;;;;;;;;;24.75;22.00;;;;;;;;5029356;28;11721;-83
2022/12/10 09:40:56;;;;;;;;;29.00;21.75;;;;;;;;5030716;28;11596;-83
2022/12/10 09:43:37;;;;;;;;;26.50;22.50;;;;;;;;5033785;28;11704;-83
2022/12/10 09:46:31;;;;;;;;;34.00;32.75;;;;;;;;5025352;28;11693;-85
2022/12/10 09:49:10;;;;;;;;;21.75;20.00;;;;;;;;5034797;28;11615;-82
2022/12/10 09:51:39;;;;;;;;;32.50;30.50;;;;;;;;5027136;28;11585;-81
2022/12/10 09:54:18;;;;;;;;;31.00;25.50;;;;;;;;5036436;28;11765;-83
2022/12/10 09:56:47;;;;;;;;;25.25;23.25;;;;;;;;5025613;28;11594;-81
2022/12/10 09:59:20;;;;;;;;;25.25;23.25;;;;;;;;5030862;28;11588;-81
2022/12/10 10:01:52;;;;;;;;;25.50;25.50;;;;;;;;5032058;28;11592;-78
2022/12/10 10:04:20;;;;;;;;;25.25;24.25;;;;;;;;5029036;28;11729;-79
2022/12/10 10:06:49;;;;;;;;;37.50;28.00;;;;;;;;5031445;28;11703;-80
2022/12/10 10:09:18;;;;;;;;;24.50;20.50;;;;;;;;5032944;28;11573;-79
2022/12/10 10:11:47;;;;;;;;;29.50;29.50;;;;;;;;5031502;28;11599;-81
2022/12/10 10:14:18;;;;;;;;;50.33;42.00;;;;;;;;5026769;28;11586;-81
2022/12/10 10:16:48;;;;;;;;;36.50;30.50;;;;;;;;5025363;28;11613;-80
2022/12/10 10:19:19;;;;;;;;;36.25;29.25;;;;;;;;5031616;28;11584;-79
2022/12/10 10:21:50;;;;;;;;;26.50;21.75;;;;;;;;5023555;28;12402;-79
2022/12/10 10:24:21;;;;;;;;;26.00;25.25;;;;;;;;5030920;28;11669;-78
2022/12/10 10:26:49;;;;;;;;;33.00;25.75;;;;;;;;5030627;28;11676;-80
2022/12/10 10:29:26;;;;;;;;;31.75;26.50;;;;;;;;5040629;28;11734;-79
2022/12/10 10:32:14;;;;;;;;;26.25;25.00;;;;;;;;5032880;28;11552;-80
2022/12/10 10:34:41;;;;;;;;;26.00;26.00;;;;;;;;5027996;28;11726;-79
2022/12/10 10:37:18;;;;;;;;;37.00;28.00;;;;;;;;5027549;28;11738;-80
2022/12/10 10:39:50;;;;;;;;;21.25;19.50;;;;;;;;5031132;28;11659;-79
2022/12/10 10:42:29;;;;;;;;;21.00;17.50;;;;;;;;5030197;28;11616;-80
2022/12/10 10:45:00;;;;;;;;;38.75;32.25;;;;;;;;5028232;28;11694;-81
2022/12/10 10:47:30;;;;;;;;;33.75;26.75;;;;;;;;5028239;28;11696;-77
2022/12/10 10:49:59;;;;;;;;;34.25;30.50;;;;;;;;5033789;28;11556;-77
2022/12/10 10:52:30;;;;;;;;;35.75;33.00;;;;;;;;5027902;28;11650;-77
2022/12/10 10:54:58;;;;;;;;;30.75;29.00;;;;;;;;5031668;28;12406;-78
2022/12/10 10:57:30;;;;;;;;;28.00;24.75;;;;;;;;5029464;28;11599;-77
2022/12/10 11:00:05;;;;;;;;;31.75;24.25;;;;;;;;5029689;28;11567;-77
2022/12/10 11:02:35;;;;;;;;;32.25;28.00;;;;;;;;5022677;28;11582;-80
2022/12/10 11:05:07;;;;;;;;;34.50;28.50;;;;;;;;5031614;28;11721;-78
2022/12/10 11:07:37;;;;;;;;;28.25;27.25;;;;;;;;5027463;28;11598;-76
2022/12/10 11:10:18;;;;;;;;;38.75;33.00;;;;;;;;5028250;28;11605;-77
2022/12/10 11:12:54;;;;;;;;;32.75;31.50;;;;;;;;5031932;28;11608;-78
2022/12/10 11:15:35;;;;;;;;;37.50;28.75;;;;;;;;5028024;28;12445;-78
2022/12/10 11:18:04;;;;;;;;;24.50;23.75;;;;;;;;5026636;28;11764;-77
2022/12/10 11:20:34;;;;;;;;;26.25;24.25;;;;;;;;5026598;28;11573;-79
2022/12/10 11:23:19;;;;;;;;;30.25;27.75;;;;;;;;5123571;27;9539;-76
2022/12/10 11:25:56;;;;;;;;;29.00;28.50;;;;;;;;5101260;28;11725;-77
2022/12/10 11:28:36;;;;;;;;;26.50;23.50;;;;;;;;5103527;28;11574;-77
2022/12/10 11:31:32;;;;;;;;;38.75;34.50;;;;;;;;5102233;27;12387;-77
2022/12/10 11:34:07;;;;;;;;;33.25;29.50;;;;;;;;5102207;28;11696;-76
2022/12/10 11:36:39;;;;;;;;;29.00;24.75;;;;;;;;5104221;28;12470;-76
2022/12/10 11:39:23;;;;;;;;;32.25;28.25;;;;;;;;5100196;28;11694;-77
2022/12/10 11:41:55;;;;;;;;;30.00;23.75;;;;;;;;5098605;28;11554;-76
2022/12/10 11:44:28;;;;;;;;;32.75;24.50;;;;;;;;5100943;28;11597;-74
2022/12/10 11:47:36;;;;;;;;;31.25;28.00;;;;;;;;5103903;28;12324;-77
2022/12/10 11:50:21;;;;;;;;;26.25;21.50;;;;;;;;5100796;28;11669;-79
2022/12/10 11:53:03;;;;;;;;;26.25;25.00;;;;;;;;5102167;28;11527;-80
2022/12/10 11:55:38;;;;;;;;;38.00;29.00;;;;;;;;5102276;28;11560;-80
2022/12/10 11:58:32;;;;;;;;;32.00;26.50;;;;;;;;5101054;28;11577;-79
2022/12/10 12:01:07;;;;;;;;;31.50;25.50;;;;;;;;5101611;28;11561;-80
2022/12/10 12:03:53;;;;;;;;;26.75;26.75;;;;;;;;5102192;28;11534;-80
2022/12/10 12:06:46;;;;;;;;;32.50;29.75;;;;;;;;5102316;28;11556;-81
2022/12/10 12:09:20;;;;;;;;;29.50;25.00;;;;;;;;5102989;28;11692;-80
2022/12/10 12:12:01;;;;;;;;;29.50;26.00;;;;;;;;5099377;28;11565;-81
2022/12/10 12:14:32;;;;;;;;;29.00;27.00;;;;;;;;5099759;28;11590;-81
2022/12/10 12:17:09;;;;;;;;;31.00;27.50;;;;;;;;5104684;28;11567;-81
2022/12/10 12:19:40;;;;;;;;;26.00;24.75;;;;;;;;5101731;28;11556;-81
2022/12/10 12:22:15;;;;;;;;;30.50;25.50;;;;;;;;5104425;28;11540;-81
2022/12/10 12:24:46;;;;;;;;;24.25;23.50;;;;;;;;5098666;28;11551;-81
2022/12/10 12:27:21;;;;;;;;;34.00;26.75;;;;;;;;5100077;28;11638;-79
2022/12/10 12:29:58;;;;;;;;;27.00;23.75;;;;;;;;5099671;28;12398;-78
2022/12/10 12:32:28;;;;;;;;;34.25;27.75;;;;;;;;5097619;28;11582;-80
2022/12/10 12:35:01;;;;;;;;;29.25;22.25;;;;;;;;5086013;28;11569;-81
2022/12/10 12:37:34;;;;;;;;;32.00;27.00;;;;;;;;5086397;28;11501;-82
2022/12/10 12:40:05;;;;;;;;;29.25;29.25;;;;;;;;5087731;28;11527;-82
2022/12/10 12:42:43;;;;;;;;;27.00;25.50;;;;;;;;5089512;28;11506;-81
2022/12/10 12:45:15;;;;;;;;;35.50;32.25;;;;;;;;5086438;28;11711;-81
2022/12/10 12:47:47;;;;;;;;;22.25;20.75;;;;;;;;5088502;28;11533;-81
2022/12/10 12:50:24;;;;;;;;;29.75;28.00;;;;;;;;5088202;28;11501;-81
2022/12/10 12:52:54;;;;;;;;;42.75;34.75;;;;;;;;5089426;28;11553;-82
2022/12/10 12:55:27;;;;;;;;;32.00;25.75;;;;;;;;5089901;28;11584;-82
2022/12/10 12:58:04;;;;;;;;;37.00;24.75;;;;;;;;5087877;28;11659;-80
2022/12/10 13:00:35;;;;;;;;;33.25;28.75;;;;;;;;5087422;28;11553;-81
2022/12/10 13:03:19;;;;;;;;;22.25;17.00;;;;;;;;5088549;28;11680;-82
2022/12/10 13:05:46;;;;;;;;;28.75;28.75;;;;;;;;5089233;28;11578;-81
2022/12/10 13:08:28;;;;;;;;;33.50;31.75;;;;;;;;5087794;28;11581;-81
2022/12/10 13:11:00;;;;;;;;;31.75;24.25;;;;;;;;5086651;28;11537;-80
2022/12/10 13:13:33;;;;;;;;;37.50;27.50;;;;;;;;5086407;28;11575;-80
2022/12/10 13:16:46;;;;;;;;;32.25;30.00;;;;;;;;5086298;28;11526;-80
2022/12/10 13:19:31;;;;;;;;;34.25;32.25;;;;;;;;5024437;28;11617;-80
2022/12/10 13:22:05;;;;;;;;;31.00;24.25;;;;;;;;5006993;28;11579;-77
2022/12/10 13:24:48;;;;;;;;;25.25;23.75;;;;;;;;5060594;28;11558;-78
2022/12/10 13:27:21;;;;;;;;;24.00;23.75;;;;;;;;5087132;28;11545;-78
2022/12/10 13:29:57;;;;;;;;;25.75;22.25;;;;;;;;5085486;28;11611;-78
2022/12/10 13:32:43;;;;;;;;;25.50;25.50;;;;;;;;5084217;28;13049;-79
2022/12/10 13:35:30;;;;;;;;;22.25;20.00;;;;;;;;5086238;28;11584;-78
2022/12/10 13:38:05;;;;;;;;;27.25;26.50;;;;;;;;5084477;28;11674;-79
2022/12/10 13:46:31;;;;;;;;;27.25;22.50;;;;;;;;5078449;28;11513;-79
2022/12/10 13:48:59;;;;;;;;;29.00;27.50;;;;;;;;5084488;28;11578;-78
2022/12/10 13:51:39;;;;;;;;;25.75;25.25;;;;;;;;5085502;28;11680;-79
2022/12/10 13:54:19;;;;;;;;;34.00;29.75;;;;;;;;5081760;28;11556;-79
2022/12/10 13:56:51;;;;;;;;;38.75;34.50;;;;;;;;5085960;28;11524;-79
2022/12/10 13:59:29;;;;;;;;;30.75;26.50;;;;;;;;5083537;28;11558;-79
2022/12/10 14:02:11;;;;;;;;;29.25;29.00;;;;;;;;5084979;28;11515;-78
2022/12/10 14:05:05;;;;;;;;;29.75;23.75;;;;;;;;5088408;28;11556;-79
2022/12/10 14:07:33;;;;;;;;;22.50;20.25;;;;;;;;5084938;28;11758;-79
2022/12/10 14:10:02;;;;;;;;;23.25;21.25;;;;;;;;5084338;28;11563;-79
2022/12/10 14:12:32;;;;;;;;;23.25;22.75;;;;;;;;5086813;28;11658;-79
2022/12/10 14:15:02;;;;;;;;;30.75;25.25;;;;;;;;5083879;28;11547;-79
2022/12/10 14:17:36;;;;;;;;;19.75;19.75;;;;;;;;5085656;28;11584;-78
2022/12/10 14:20:06;;;;;;;;;24.50;22.50;;;;;;;;5088394;28;11628;-79
2022/12/10 14:22:37;;;;;;;;;33.50;31.25;;;;;;;;5084753;28;11604;-79
2022/12/10 14:25:07;;;;;;;;;26.50;24.00;;;;;;;;5084452;28;11681;-78
2022/12/10 14:27:40;;;;;;;;;30.00;25.75;;;;;;;;5086049;28;12348;-79
2022/12/10 14:30:17;;;;;;;;;28.25;26.25;;;;;;;;5086268;28;11672;-78
2022/12/10 14:32:46;;;;;;;;;34.50;23.25;;;;;;;;5085779;28;11530;-80
2022/12/10 14:35:18;;;;;;;;;36.75;30.50;;;;;;;;5084676;28;11519;-80
2022/12/10 14:37:48;;;;;;;;;25.25;21.00;;;;;;;;5084356;28;11560;-80
2022/12/10 14:40:23;;;;;;;;;26.00;25.25;;;;;;;;5085931;28;11543;-80
2022/12/10 14:42:52;;;;;;;;;20.00;15.75;;;;;;;;5084039;28;11542;-79
2022/12/10 14:45:20;;;;;;;;;29.75;28.50;;;;;;;;5084195;28;12412;-80
2022/12/10 14:47:52;;;;;;;;;23.00;21.75;;;;;;;;5085870;28;11762;-80
2022/12/10 14:50:23;;;;;;;;;34.25;27.75;;;;;;;;5082533;28;11536;-80
2022/12/10 14:52:52;;;;;;;;;23.25;23.25;;;;;;;;5082969;28;11673;-81
2022/12/10 14:55:23;;;;;;;;;9.75;9.75;;;;;;;;5082932;28;12489;-80
2022/12/10 14:57:54;;;;;;;;;27.25;26.00;;;;;;;;5083626;28;11508;-80
2022/12/10 15:00:24;;;;;;;;;28.25;23.75;;;;;;;;5083959;28;11552;-80
2022/12/10 15:02:56;;;;;;;;;28.50;25.75;;;;;;;;5084116;28;11563;-80
2022/12/10 15:05:26;;;;;;;;;36.00;25.25;;;;;;;;5086246;28;12310;-80
2022/12/10 15:07:56;;;;;;;;;28.00;26.00;;;;;;;;5084164;28;11550;-80
2022/12/10 15:10:27;;;;;;;;;28.50;22.75;;;;;;;;5083083;28;11690;-79
2022/12/10 15:12:56;;;;;;;;;28.50;23.75;;;;;;;;5084714;28;11566;-80
2022/12/10 15:15:30;;;;;;;;;33.00;28.25;;;;;;;;5085876;28;11543;-80
2022/12/10 15:18:01;;;;;;;;;33.50;31.25;;;;;;;;5081277;28;11671;-80
2022/12/10 15:20:32;;;;;;;;;21.75;19.75;;;;;;;;5085134;28;11528;-80
2022/12/10 15:23:20;;;;;;;;;21.25;20.75;;;;;;;;5083907;28;11527;-80
2022/12/10 15:25:52;;;;;;;;;26.25;23.00;;;;;;;;5081735;28;11549;-83
2022/12/10 15:28:25;;;;;;;;;20.75;17.50;;;;;;;;5082884;28;11565;-79
2022/12/10 15:30:56;;;;;;;;;22.25;21.25;;;;;;;;5083259;28;11771;-80
2022/12/10 15:33:33;;;;;;;;;24.75;22.50;;;;;;;;5083865;28;11526;-80
2022/12/10 15:36:01;;;;;;;;;31.25;27.25;;;;;;;;5082370;28;11557;-80